Time;durP1;ratioP1;P1;durP2;ratioP2;P2;SDS_P1;SDS_P2;PMS_P1;PMS_P2;Temp;Humidity;BMP_temperature;BMP_pressure;BME280_temperature;BME280_humidity;BME280_pressure;Samples;Min_cycle;Max_cycle;Signal;HPM_P1;HPM_P2
2023/05/13 00:00:50;;;;;;;19.43;17.60;;;;;;;;;;5054331;28;20182;-70
2023/05/13 00:03:16;;;;;;;18.37;16.43;;;;;;;;;;5053482;28;20198;-70
2023/05/13 00:05:42;;;;;;;17.97;16.13;;;;;;;;;;5037842;28;20586;-69
2023/05/13 00:08:08;;;;;;;17.60;15.90;;;;;;;;;;5054640;28;20173;-70
2023/05/13 00:10:34;;;;;;;20.47;15.50;;;;;;;;;;5054229;28;20193;-69
2023/05/13 00:13:00;;;;;;;17.13;15.43;;;;;;;;;;5054385;28;20205;-70
2023/05/13 00:15:26;;;;;;;17.97;14.93;;;;;;;;;;5036108;28;20174;-69
2023/05/13 00:17:52;;;;;;;17.73;15.13;;;;;;;;;;5036161;28;20273;-69
2023/05/13 00:20:18;;;;;;;17.20;13.90;;;;;;;;;;5036104;28;20268;-70
2023/05/13 00:22:44;;;;;;;16.13;14.43;;;;;;;;;;5053806;28;20217;-70
2023/05/13 00:25:10;;;;;;;16.07;14.37;;;;;;;;;;5035959;28;20259;-69
2023/05/13 00:27:36;;;;;;;20.50;15.40;;;;;;;;;;5054319;28;20592;-69
2023/05/13 00:30:04;;;;;;;16.80;15.10;;;;;;;;;;5054053;28;20179;-70
2023/05/13 00:32:30;;;;;;;17.70;15.27;;;;;;;;;;5035970;28;20682;-70
2023/05/13 00:34:56;;;;;;;19.63;15.43;;;;;;;;;;5035954;28;20186;-70
2023/05/13 00:37:22;;;;;;;21.47;14.70;;;;;;;;;;5053953;28;20175;-70
2023/05/13 00:39:48;;;;;;;21.67;16.23;;;;;;;;;;5035887;28;20186;-70
2023/05/13 00:42:14;;;;;;;19.13;15.77;;;;;;;;;;5053419;28;20208;-71
2023/05/13 00:44:40;;;;;;;17.83;15.87;;;;;;;;;;5053548;28;20636;-69
2023/05/13 00:47:06;;;;;;;18.30;16.33;;;;;;;;;;5053566;28;20224;-69
2023/05/13 00:49:33;;;;;;;20.47;16.67;;;;;;;;;;5055147;28;20177;-69
2023/05/13 00:51:59;;;;;;;23.03;16.90;;;;;;;;;;5053772;28;20189;-69
2023/05/13 00:54:25;;;;;;;20.27;16.60;;;;;;;;;;5053595;28;20193;-69
2023/05/13 00:56:55;;;;;;;23.90;17.63;;;;;;;;;;5053534;28;20182;-69
2023/05/13 00:59:21;;;;;;;21.13;16.67;;;;;;;;;;5053350;28;20211;-69
2023/05/13 01:01:52;;;;;;;20.00;15.93;;;;;;;;;;5053296;28;20202;-69
2023/05/13 01:04:28;;;;;;;17.93;16.03;;;;;;;;;;5053321;28;20668;-69
2023/05/13 01:06:54;;;;;;;19.27;16.53;;;;;;;;;;5053444;28;20166;-69
2023/05/13 01:09:20;;;;;;;18.50;16.67;;;;;;;;;;5035297;28;20178;-69
2023/05/13 01:11:48;;;;;;;17.03;15.30;;;;;;;;;;5053383;28;20178;-69
2023/05/13 01:14:18;;;;;;;18.27;14.50;;;;;;;;;;5052889;28;20285;-69
2023/05/13 01:16:49;;;;;;;18.63;13.97;;;;;;;;;;5053284;28;20181;-69
2023/05/13 01:19:34;;;;;;;17.50;14.07;;;;;;;;;;5053055;28;20224;-69
2023/05/13 01:22:00;;;;;;;13.57;12.20;;;;;;;;;;5034937;28;20249;-69
2023/05/13 01:24:26;;;;;;;14.00;12.33;;;;;;;;;;5053196;28;20198;-69
2023/05/13 01:26:52;;;;;;;12.40;11.30;;;;;;;;;;5035419;28;20236;-69
2023/05/13 01:29:17;;;;;;;13.30;11.53;;;;;;;;;;5035174;28;20269;-69
2023/05/13 01:31:45;;;;;;;16.83;11.73;;;;;;;;;;5053051;28;20182;-69
2023/05/13 01:34:11;;;;;;;13.67;11.43;;;;;;;;;;5052838;28;20213;-70
2023/05/13 01:36:38;;;;;;;13.60;11.80;;;;;;;;;;5053129;28;20174;-69
2023/05/13 01:39:05;;;;;;;12.47;11.27;;;;;;;;;;5052949;28;20179;-70
2023/05/13 01:41:31;;;;;;;12.77;10.80;;;;;;;;;;5036221;28;20258;-69
2023/05/13 01:43:57;;;;;;;12.17;11.07;;;;;;;;;;5035275;28;20687;-69
2023/05/13 01:46:23;;;;;;;12.90;11.07;;;;;;;;;;5053024;28;20171;-69
2023/05/13 01:48:49;;;;;;;13.37;11.17;;;;;;;;;;5053072;28;20632;-69
2023/05/13 01:51:15;;;;;;;12.10;10.90;;;;;;;;;;5052729;28;20232;-69
2023/05/13 01:53:41;;;;;;;12.67;11.37;;;;;;;;;;5052722;28;20206;-70
2023/05/13 01:56:10;;;;;;;13.23;11.83;;;;;;;;;;5052705;28;20690;-69
2023/05/13 01:58:36;;;;;;;14.67;10.77;;;;;;;;;;5052568;28;20236;-70
2023/05/13 02:01:02;;;;;;;13.37;12.03;;;;;;;;;;5052869;28;20186;-69
2023/05/13 02:03:28;;;;;;;17.47;12.43;;;;;;;;;;5052554;28;20626;-69
2023/05/13 02:05:54;;;;;;;15.27;13.77;;;;;;;;;;5034730;28;20178;-69
2023/05/13 02:08:22;;;;;;;16.27;14.63;;;;;;;;;;5053142;28;20175;-69
2023/05/13 02:10:57;;;;;;;17.27;15.40;;;;;;;;;;5052649;28;20278;-70
2023/05/13 02:13:23;;;;;;;21.97;16.07;;;;;;;;;;5052765;28;20194;-69
2023/05/13 02:15:49;;;;;;;18.53;16.27;;;;;;;;;;5052813;28;20202;-69
2023/05/13 02:18:15;;;;;;;17.63;15.93;;;;;;;;;;5052571;28;20175;-70
2023/05/13 02:20:41;;;;;;;18.00;16.10;;;;;;;;;;5052547;28;20183;-69
2023/05/13 02:23:07;;;;;;;18.47;16.53;;;;;;;;;;5034483;28;20241;-70
2023/05/13 02:25:34;;;;;;;18.40;16.60;;;;;;;;;;5035998;28;20552;-69
2023/05/13 02:28:00;;;;;;;17.13;15.43;;;;;;;;;;5056536;28;20174;-69
2023/05/13 02:30:26;;;;;;;17.60;15.80;;;;;;;;;;5057305;28;20174;-70
2023/05/13 02:32:53;;;;;;;18.33;16.50;;;;;;;;;;5040108;28;20626;-70
2023/05/13 02:35:19;;;;;;;17.83;15.03;;;;;;;;;;5048927;28;20182;-70
2023/05/13 02:37:46;;;;;;;17.60;15.73;;;;;;;;;;5056450;28;20706;-70
2023/05/13 02:40:12;;;;;;;16.97;15.30;;;;;;;;;;5056167;28;20228;-70
2023/05/13 02:42:38;;;;;;;16.83;15.10;;;;;;;;;;5055938;28;20722;-70
2023/05/13 02:45:04;;;;;;;18.10;16.20;;;;;;;;;;5056182;28;20179;-70
2023/05/13 02:47:30;;;;;;;17.17;15.30;;;;;;;;;;5055995;28;20178;-70
2023/05/13 02:49:56;;;;;;;17.60;15.73;;;;;;;;;;5055843;28;20174;-70
2023/05/13 02:52:22;;;;;;;18.70;15.43;;;;;;;;;;5056057;28;20210;-70
2023/05/13 02:54:48;;;;;;;20.10;15.43;;;;;;;;;;5055691;28;20245;-70
2023/05/13 02:57:14;;;;;;;18.10;14.80;;;;;;;;;;5056261;28;20178;-70
2023/05/13 02:59:40;;;;;;;19.03;15.90;;;;;;;;;;5055684;28;20548;-70
2023/05/13 03:02:06;;;;;;;17.83;15.43;;;;;;;;;;5055761;28;20224;-71
2023/05/13 03:04:32;;;;;;;17.77;15.33;;;;;;;;;;5055546;28;20178;-70
2023/05/13 03:06:58;;;;;;;17.17;15.47;;;;;;;;;;5037522;28;20175;-70
2023/05/13 03:09:24;;;;;;;16.97;15.30;;;;;;;;;;5037467;28;20220;-70
2023/05/13 03:11:50;;;;;;;18.67;16.67;;;;;;;;;;5055399;28;20200;-70
2023/05/13 03:14:16;;;;;;;18.30;15.90;;;;;;;;;;5055393;28;20194;-70
2023/05/13 03:16:43;;;;;;;17.60;15.90;;;;;;;;;;5037473;28;20233;-70
2023/05/13 03:19:09;;;;;;;19.57;17.50;;;;;;;;;;5037238;28;20174;-70
2023/05/13 03:21:35;;;;;;;21.33;17.70;;;;;;;;;;5055194;28;20229;-70
2023/05/13 03:24:04;;;;;;;24.40;18.63;;;;;;;;;;5037172;28;20586;-70
2023/05/13 03:26:30;;;;;;;25.17;19.33;;;;;;;;;;5057055;28;20537;-70
2023/05/13 03:28:56;;;;;;;22.47;19.43;;;;;;;;;;5055297;28;20183;-68
2023/05/13 03:31:22;;;;;;;27.70;19.17;;;;;;;;;;5055226;28;20185;-69
2023/05/13 03:33:48;;;;;;;20.93;18.83;;;;;;;;;;5036881;28;20217;-71
2023/05/13 03:36:14;;;;;;;21.57;18.80;;;;;;;;;;5054668;28;20234;-71
2023/05/13 03:38:40;;;;;;;26.30;17.90;;;;;;;;;;5054087;28;20250;-68
2023/05/13 03:41:06;;;;;;;25.33;17.43;;;;;;;;;;5055130;28;20182;-71
2023/05/13 03:43:32;;;;;;;19.50;17.37;;;;;;;;;;5054751;28;20221;-69
2023/05/13 03:45:58;;;;;;;20.00;17.17;;;;;;;;;;5055088;28;20174;-70
2023/05/13 03:48:24;;;;;;;18.97;16.47;;;;;;;;;;5054968;28;20708;-69
2023/05/13 03:50:51;;;;;;;17.17;15.47;;;;;;;;;;5055046;28;20174;-69
2023/05/13 03:53:17;;;;;;;17.03;15.27;;;;;;;;;;5054848;28;20205;-69
2023/05/13 03:55:44;;;;;;;16.30;14.23;;;;;;;;;;5054679;28;20208;-69
2023/05/13 03:58:12;;;;;;;16.47;14.70;;;;;;;;;;5036675;28;20179;-69
2023/05/13 04:00:38;;;;;;;17.33;15.57;;;;;;;;;;5054462;28;20178;-69
2023/05/13 04:03:04;;;;;;;20.63;15.30;;;;;;;;;;5054654;28;20587;-69
2023/05/13 04:05:31;;;;;;;19.17;15.53;;;;;;;;;;5036532;28;20178;-70
2023/05/13 04:07:56;;;;;;;18.90;15.30;;;;;;;;;;5054303;28;20182;-69
2023/05/13 04:10:22;;;;;;;24.23;16.23;;;;;;;;;;5054178;28;20186;-70
2023/05/13 04:12:48;;;;;;;18.77;16.17;;;;;;;;;;5036216;28;20206;-69
2023/05/13 04:15:14;;;;;;;19.03;17.07;;;;;;;;;;5054111;28;20182;-70
2023/05/13 04:17:40;;;;;;;21.17;17.33;;;;;;;;;;5055382;28;20239;-70
2023/05/13 04:20:07;;;;;;;19.00;16.97;;;;;;;;;;5036142;28;20236;-70
2023/05/13 04:22:34;;;;;;;19.13;16.97;;;;;;;;;;5054031;28;20215;-69
2023/05/13 04:25:00;;;;;;;22.17;17.40;;;;;;;;;;5036027;28;20184;-70
2023/05/13 04:27:26;;;;;;;19.43;17.43;;;;;;;;;;5054148;28;20257;-70
2023/05/13 04:29:51;;;;;;;20.07;16.90;;;;;;;;;;5054087;28;20174;-71
2023/05/13 04:32:20;;;;;;;18.60;16.30;;;;;;;;;;5053550;28;20558;-70
2023/05/13 04:34:50;;;;;;;17.80;15.90;;;;;;;;;;5054004;28;20163;-70
2023/05/13 04:37:16;;;;;;;18.83;17.00;;;;;;;;;;5053610;28;20182;-69
2023/05/13 04:39:42;;;;;;;18.03;15.70;;;;;;;;;;5053752;28;20585;-69
2023/05/13 04:42:08;;;;;;;19.83;15.90;;;;;;;;;;5053690;28;20336;-70
2023/05/13 04:44:34;;;;;;;20.57;15.93;;;;;;;;;;5053554;28;20260;-70
2023/05/13 04:47:00;;;;;;;17.90;16.10;;;;;;;;;;5035897;28;20632;-70
2023/05/13 04:49:26;;;;;;;23.63;16.20;;;;;;;;;;5035337;28;20175;-70
2023/05/13 04:51:52;;;;;;;18.80;16.17;;;;;;;;;;5053413;28;20608;-69
2023/05/13 04:54:18;;;;;;;30.30;16.47;;;;;;;;;;5053309;28;20202;-70
2023/05/13 04:56:45;;;;;;;18.87;16.43;;;;;;;;;;5053414;28;20265;-70
2023/05/13 04:59:11;;;;;;;23.73;16.77;;;;;;;;;;5053702;28;20182;-69
2023/05/13 05:01:37;;;;;;;23.13;16.47;;;;;;;;;;5053735;28;20206;-70
2023/05/13 05:04:02;;;;;;;22.30;16.10;;;;;;;;;;5053360;28;20221;-70
2023/05/13 05:06:28;;;;;;;18.13;16.27;;;;;;;;;;5053575;28;20175;-69
2023/05/13 05:08:54;;;;;;;20.10;15.23;;;;;;;;;;5054492;28;20548;-69
2023/05/13 05:11:20;;;;;;;18.00;14.80;;;;;;;;;;5037291;28;20557;-69
2023/05/13 05:13:46;;;;;;;16.03;14.30;;;;;;;;;;5053693;28;20580;-69
2023/05/13 05:16:12;;;;;;;22.27;13.83;;;;;;;;;;5035963;28;20624;-69
2023/05/13 05:18:40;;;;;;;16.07;13.60;;;;;;;;;;5054137;28;20549;-70
2023/05/13 05:21:06;;;;;;;17.83;14.33;;;;;;;;;;5053458;28;20228;-70
2023/05/13 05:23:32;;;;;;;22.13;14.13;;;;;;;;;;5049068;22;20252;-68
2023/05/13 05:26:00;;;;;;;21.57;14.17;;;;;;;;;;5035332;28;20644;-67
2023/05/13 05:28:26;;;;;;;27.70;14.03;;;;;;;;;;5053368;28;20547;-67
2023/05/13 05:30:53;;;;;;;17.00;13.17;;;;;;;;;;5053262;28;20234;-67
2023/05/13 05:33:19;;;;;;;16.50;12.93;;;;;;;;;;5053072;28;20292;-67
2023/05/13 05:35:45;;;;;;;17.83;13.13;;;;;;;;;;5053464;28;20182;-67
2023/05/13 05:38:11;;;;;;;22.37;13.40;;;;;;;;;;5035341;28;20186;-65
2023/05/13 05:40:41;;;;;;;20.83;11.93;;;;;;;;;;5053136;28;20228;-65
2023/05/13 05:43:09;;;;;;;18.23;12.43;;;;;;;;;;5035047;28;20234;-65
2023/05/13 05:45:35;;;;;;;18.97;12.07;;;;;;;;;;5035233;28;20183;-67
2023/05/13 05:48:01;;;;;;;17.57;11.67;;;;;;;;;;5053121;28;20171;-66
2023/05/13 05:50:27;;;;;;;20.27;12.83;;;;;;;;;;5053111;28;20174;-66
2023/05/13 05:52:53;;;;;;;18.53;12.23;;;;;;;;;;5034994;28;20684;-66
2023/05/13 05:55:20;;;;;;;18.83;11.77;;;;;;;;;;5053593;28;20317;-66
2023/05/13 05:57:46;;;;;;;15.50;11.27;;;;;;;;;;5035404;28;20273;-65
2023/05/13 06:00:12;;;;;;;11.83;10.40;;;;;;;;;;5036011;28;20266;-66
2023/05/13 06:02:38;;;;;;;14.73;11.07;;;;;;;;;;5039226;28;20275;-66
2023/05/13 06:05:05;;;;;;;13.40;9.87;;;;;;;;;;5039132;28;20213;-66
2023/05/13 06:07:31;;;;;;;10.67;9.60;;;;;;;;;;5057031;28;20174;-65
2023/05/13 06:09:57;;;;;;;12.10;9.90;;;;;;;;;;5039045;28;20185;-66
2023/05/13 06:12:23;;;;;;;13.27;9.33;;;;;;;;;;5057054;28;20202;-66
2023/05/13 06:14:49;;;;;;;10.97;9.87;;;;;;;;;;5056860;28;20183;-66
2023/05/13 06:17:15;;;;;;;13.30;10.77;;;;;;;;;;5056763;28;20235;-66
2023/05/13 06:19:41;;;;;;;11.57;10.23;;;;;;;;;;5038802;28;20223;-65
2023/05/13 06:22:08;;;;;;;14.27;10.03;;;;;;;;;;5038393;28;20628;-66
2023/05/13 06:24:34;;;;;;;11.27;10.00;;;;;;;;;;5038535;28;20175;-66
2023/05/13 06:27:00;;;;;;;14.10;10.17;;;;;;;;;;5056921;28;20202;-66
2023/05/13 06:29:26;;;;;;;10.13;9.17;;;;;;;;;;5056493;28;20650;-66
2023/05/13 06:31:52;;;;;;;10.70;9.60;;;;;;;;;;5056392;28;20178;-66
2023/05/13 06:34:18;;;;;;;16.00;10.63;;;;;;;;;;5056226;28;20182;-66
2023/05/13 06:36:44;;;;;;;10.07;9.10;;;;;;;;;;5038246;28;20248;-66
2023/05/13 06:39:11;;;;;;;17.33;9.97;;;;;;;;;;5056027;28;20723;-66
2023/05/13 06:41:37;;;;;;;11.67;10.53;;;;;;;;;;5055910;28;20206;-66
2023/05/13 06:44:03;;;;;;;10.93;9.90;;;;;;;;;;5060673;28;20222;-65
2023/05/13 06:46:29;;;;;;;13.20;9.87;;;;;;;;;;5055977;28;20175;-66
2023/05/13 06:48:56;;;;;;;13.67;9.70;;;;;;;;;;5056329;28;20178;-66
2023/05/13 06:51:22;;;;;;;10.90;9.80;;;;;;;;;;5037927;28;20191;-66
2023/05/13 06:53:48;;;;;;;10.43;9.43;;;;;;;;;;5037783;28;20239;-66
2023/05/13 06:56:14;;;;;;;10.27;9.23;;;;;;;;;;5055765;28;20281;-66
2023/05/13 06:58:40;;;;;;;11.50;9.73;;;;;;;;;;5037920;28;20277;-66
2023/05/13 07:01:06;;;;;;;11.43;9.83;;;;;;;;;;5037722;28;20182;-66
2023/05/13 07:03:32;;;;;;;9.73;8.67;;;;;;;;;;5055429;28;20191;-66
2023/05/13 07:05:58;;;;;;;12.60;8.73;;;;;;;;;;5055548;28;20186;-66
2023/05/13 07:08:24;;;;;;;10.90;8.67;;;;;;;;;;5055796;28;20202;-67
2023/05/13 07:10:50;;;;;;;10.57;8.50;;;;;;;;;;5055367;28;20174;-65
2023/05/13 07:13:17;;;;;;;9.07;8.10;;;;;;;;;;5055337;28;20198;-65
2023/05/13 07:15:44;;;;;;;10.03;8.20;;;;;;;;;;5055553;28;20174;-66
2023/05/13 07:18:10;;;;;;;12.33;7.77;;;;;;;;;;5055295;28;20171;-65
2023/05/13 07:20:37;;;;;;;10.43;7.80;;;;;;;;;;5037519;28;20189;-66
2023/05/13 07:23:02;;;;;;;8.57;7.67;;;;;;;;;;5037020;28;20225;-66
2023/05/13 07:25:28;;;;;;;11.33;7.40;;;;;;;;;;5037274;28;20186;-66
2023/05/13 07:27:55;;;;;;;11.23;7.50;;;;;;;;;;5056073;28;20171;-66
2023/05/13 07:30:21;;;;;;;8.43;7.53;;;;;;;;;;5037336;28;20202;-66
2023/05/13 07:32:47;;;;;;;8.87;7.93;;;;;;;;;;5055158;28;20616;-66
2023/05/13 07:35:13;;;;;;;8.67;7.00;;;;;;;;;;5054931;28;20174;-65
2023/05/13 07:37:39;;;;;;;11.47;7.10;;;;;;;;;;5037043;28;20659;-66
2023/05/13 07:40:05;;;;;;;10.13;7.13;;;;;;;;;;5055032;28;20182;-66
2023/05/13 07:42:32;;;;;;;7.67;6.97;;;;;;;;;;5054952;28;20714;-67
2023/05/13 07:44:58;;;;;;;7.30;6.60;;;;;;;;;;5055039;28;20549;-66
2023/05/13 07:47:24;;;;;;;8.57;6.87;;;;;;;;;;5036778;28;20183;-66
2023/05/13 07:49:50;;;;;;;7.83;6.33;;;;;;;;;;5036714;28;20593;-67
2023/05/13 07:52:16;;;;;;;7.30;6.60;;;;;;;;;;5036983;28;20202;-66
2023/05/13 07:54:42;;;;;;;7.50;6.43;;;;;;;;;;5054722;28;20185;-66
2023/05/13 07:57:08;;;;;;;9.10;7.00;;;;;;;;;;5036852;28;20178;-66
2023/05/13 07:59:33;;;;;;;7.70;5.87;;;;;;;;;;5054494;28;20265;-66
2023/05/13 08:01:59;;;;;;;8.50;6.93;;;;;;;;;;5054596;28;20198;-68
2023/05/13 08:04:25;;;;;;;8.63;6.50;;;;;;;;;;5054487;28;20174;-66
2023/05/13 08:06:51;;;;;;;9.10;6.53;;;;;;;;;;5036680;28;20224;-66
2023/05/13 08:09:17;;;;;;;11.67;7.17;;;;;;;;;;5036621;28;20182;-66
2023/05/13 08:11:43;;;;;;;10.17;7.00;;;;;;;;;;5054413;28;20185;-66
2023/05/13 08:14:09;;;;;;;9.63;6.87;;;;;;;;;;5054683;28;20205;-66
2023/05/13 08:16:36;;;;;;;9.00;6.70;;;;;;;;;;5054333;28;20565;-66
2023/05/13 08:19:02;;;;;;;6.80;6.00;;;;;;;;;;5054210;28;20640;-66
2023/05/13 08:21:28;;;;;;;10.90;5.87;;;;;;;;;;5036176;28;20209;-67
2023/05/13 08:23:54;;;;;;;6.97;6.23;;;;;;;;;;5053051;28;20211;-66
2023/05/13 08:26:20;;;;;;;8.40;5.73;;;;;;;;;;5036342;28;20556;-65
2023/05/13 08:28:46;;;;;;;7.60;6.23;;;;;;;;;;5054118;28;20182;-66
2023/05/13 08:31:12;;;;;;;9.90;5.67;;;;;;;;;;5054396;28;20660;-68
2023/05/13 08:33:40;;;;;;;7.13;5.77;;;;;;;;;;5054029;28;20199;-66
2023/05/13 08:36:07;;;;;;;11.40;5.93;;;;;;;;;;5053919;28;20684;-66
2023/05/13 08:38:34;;;;;;;7.70;6.33;;;;;;;;;;5054265;28;20182;-67
2023/05/13 08:41:00;;;;;;;8.37;5.90;;;;;;;;;;5053779;28;20182;-68
2023/05/13 08:43:27;;;;;;;10.70;5.13;;;;;;;;;;5053713;28;20275;-66
2023/05/13 08:45:54;;;;;;;5.93;5.43;;;;;;;;;;5053930;28;20182;-66
2023/05/13 08:48:21;;;;;;;6.67;5.57;;;;;;;;;;5036239;28;20205;-67
2023/05/13 08:50:47;;;;;;;11.33;6.90;;;;;;;;;;5036171;28;20185;-66
2023/05/13 08:53:16;;;;;;;11.20;7.20;;;;;;;;;;5036346;28;20259;-66
2023/05/13 08:55:42;;;;;;;10.07;7.10;;;;;;;;;;5036540;28;20632;-67
2023/05/13 08:58:08;;;;;;;10.83;7.97;;;;;;;;;;5036181;28;20328;-67
2023/05/13 09:00:34;;;;;;;10.03;7.00;;;;;;;;;;5053853;28;20240;-67
2023/05/13 09:03:00;;;;;;;10.07;8.13;;;;;;;;;;5053619;28;20210;-67
2023/05/13 09:05:26;;;;;;;15.70;8.30;;;;;;;;;;5054035;28;20182;-67
2023/05/13 09:07:53;;;;;;;12.93;8.00;;;;;;;;;;5053393;28;20221;-67
2023/05/13 09:10:19;;;;;;;13.87;7.47;;;;;;;;;;5035689;28;20562;-69
2023/05/13 09:12:47;;;;;;;19.67;7.80;;;;;;;;;;5053696;28;20594;-66
2023/05/13 09:15:17;;;;;;;18.53;7.70;;;;;;;;;;5037070;28;20190;-67
2023/05/13 09:17:44;;;;;;;10.10;6.30;;;;;;;;;;5055202;28;20618;-67
2023/05/13 09:20:14;;;;;;;6.00;5.40;;;;;;;;;;5054170;28;20532;-66
2023/05/13 09:22:50;;;;;;;12.47;5.80;;;;;;;;;;5054560;28;20218;-67
2023/05/13 09:25:17;;;;;;;6.00;5.07;;;;;;;;;;5055087;28;20252;-66
2023/05/13 09:27:48;;;;;;;7.47;5.03;;;;;;;;;;5036470;28;20178;-66
2023/05/13 09:30:14;;;;;;;7.87;5.23;;;;;;;;;;5054454;28;20181;-66
2023/05/13 09:32:41;;;;;;;10.23;5.40;;;;;;;;;;5054455;28;20247;-67
2023/05/13 09:35:15;;;;;;;5.73;4.80;;;;;;;;;;5038948;28;20186;-66
2023/05/13 09:37:42;;;;;;;8.37;5.80;;;;;;;;;;5040750;28;20188;-66
2023/05/13 09:40:11;;;;;;;8.57;5.60;;;;;;;;;;5058968;28;20312;-67
2023/05/13 09:42:40;;;;;;;7.87;5.40;;;;;;;;;;5058571;28;20214;-66
2023/05/13 09:45:06;;;;;;;17.37;15.53;;;;;;;;;;5058529;28;20196;-66
2023/05/13 09:47:32;;;;;;;19.17;17.30;;;;;;;;;;5059489;28;20202;-66
2023/05/13 09:50:01;;;;;;;11.03;9.63;;;;;;;;;;5059087;28;20636;-66
2023/05/13 09:52:29;;;;;;;11.57;8.60;;;;;;;;;;5058988;28;20683;-66
2023/05/13 09:54:56;;;;;;;17.40;13.60;;;;;;;;;;5040718;28;20186;-66
2023/05/13 09:57:22;;;;;;;9.07;8.13;;;;;;;;;;5039456;28;20484;-67
2023/05/13 09:59:48;;;;;;;7.67;6.90;;;;;;;;;;5058873;28;20217;-66
2023/05/13 10:02:15;;;;;;;10.03;6.83;;;;;;;;;;5040615;28;20210;-66
2023/05/13 10:04:41;;;;;;;7.37;5.63;;;;;;;;;;5039797;28;20174;-66
2023/05/13 10:07:08;;;;;;;12.33;10.07;;;;;;;;;;5040095;28;20202;-66
2023/05/13 10:09:36;;;;;;;8.13;7.23;;;;;;;;;;5059140;28;20245;-66
2023/05/13 10:12:03;;;;;;;11.97;7.07;;;;;;;;;;5040815;28;20656;-66
2023/05/13 10:14:29;;;;;;;8.00;6.30;;;;;;;;;;5058662;28;20186;-66
2023/05/13 10:16:56;;;;;;;7.90;5.03;;;;;;;;;;5040250;28;20214;-66
2023/05/13 10:19:23;;;;;;;9.07;4.67;;;;;;;;;;5039317;28;20179;-66
2023/05/13 10:21:51;;;;;;;5.67;4.10;;;;;;;;;;5039890;28;20209;-68
2023/05/13 10:24:17;;;;;;;11.23;7.33;;;;;;;;;;5039970;28;20687;-68
2023/05/13 10:26:43;;;;;;;6.83;4.37;;;;;;;;;;5039840;28;20175;-67
2023/05/13 10:29:09;;;;;;;7.90;5.00;;;;;;;;;;5059163;28;20598;-67
2023/05/13 10:31:35;;;;;;;6.97;5.47;;;;;;;;;;5041436;28;20186;-68
2023/05/13 10:34:01;;;;;;;9.03;4.77;;;;;;;;;;5058368;28;20225;-67
2023/05/13 10:36:40;;;;;;;10.33;4.80;;;;;;;;;;5059408;28;20175;-67
2023/05/13 10:39:15;;;;;;;6.57;4.57;;;;;;;;;;5039763;28;20264;-67
2023/05/13 10:41:50;;;;;;;6.90;4.87;;;;;;;;;;5040401;28;20201;-68
2023/05/13 10:44:17;;;;;;;8.33;5.00;;;;;;;;;;5058005;28;20174;-69
2023/05/13 10:46:43;;;;;;;10.33;9.23;;;;;;;;;;5056703;28;20174;-67
2023/05/13 10:49:17;;;;;;;10.07;6.93;;;;;;;;;;5057035;28;20178;-67
2023/05/13 10:51:48;;;;;;;7.87;5.00;;;;;;;;;;5038850;28;20172;-68
2023/05/13 10:54:20;;;;;;;27.63;20.17;;;;;;;;;;5056965;28;20194;-71
2023/05/13 10:56:56;;;;;;;11.90;10.30;;;;;;;;;;5057197;28;20276;-68
2023/05/13 10:59:22;;;;;;;7.70;5.40;;;;;;;;;;5039264;28;20628;-69
2023/05/13 11:01:48;;;;;;;5.43;4.20;;;;;;;;;;5056781;28;20675;-68
2023/05/13 11:04:15;;;;;;;5.97;4.37;;;;;;;;;;5056333;28;20723;-67
2023/05/13 11:06:43;;;;;;;5.63;4.83;;;;;;;;;;5038576;28;20182;-68
2023/05/13 11:09:13;;;;;;;7.83;4.67;;;;;;;;;;5056310;28;20553;-67
2023/05/13 11:11:39;;;;;;;6.67;5.87;;;;;;;;;;5038922;28;20178;-69
2023/05/13 11:14:14;;;;;;;8.00;4.83;;;;;;;;;;5038612;28;20210;-68
2023/05/13 11:16:45;;;;;;;6.40;4.40;;;;;;;;;;5056362;28;20249;-68
2023/05/13 11:19:18;;;;;;;6.13;3.80;;;;;;;;;;5037939;28;20171;-68
2023/05/13 11:21:47;;;;;;;4.70;4.17;;;;;;;;;;5056452;28;20244;-69
2023/05/13 11:24:16;;;;;;;7.10;4.70;;;;;;;;;;5078734;22;20241;-71
2023/05/13 11:26:45;;;;;;;7.57;5.03;;;;;;;;;;5038166;28;20170;-69
2023/05/13 11:29:11;;;;;;;8.43;4.13;;;;;;;;;;5055392;28;20705;-69
2023/05/13 11:31:43;;;;;;;7.67;4.63;;;;;;;;;;5055341;28;20185;-70
2023/05/13 11:34:10;;;;;;;4.97;4.03;;;;;;;;;;5055302;28;20186;-70
2023/05/13 11:36:37;;;;;;;4.40;3.90;;;;;;;;;;5037261;28;20182;-69
2023/05/13 11:39:11;;;;;;;6.30;4.70;;;;;;;;;;5037184;28;20253;-70
2023/05/13 11:41:38;;;;;;;6.67;4.73;;;;;;;;;;5054784;28;20206;-70
2023/05/13 11:44:04;;;;;;;7.50;4.90;;;;;;;;;;5036888;28;20179;-70
2023/05/13 11:46:30;;;;;;;5.80;4.07;;;;;;;;;;5054892;28;20173;-70
2023/05/13 11:48:56;;;;;;;4.80;4.40;;;;;;;;;;5054764;28;20253;-70
2023/05/13 11:51:24;;;;;;;4.43;4.03;;;;;;;;;;5036840;28;20186;-71
2023/05/13 11:53:51;;;;;;;6.43;4.53;;;;;;;;;;5054770;28;20632;-71
2023/05/13 11:56:18;;;;;;;6.20;4.20;;;;;;;;;;5036955;28;20206;-70
2023/05/13 11:58:44;;;;;;;5.10;4.10;;;;;;;;;;5036011;28;20178;-71
2023/05/13 12:01:16;;;;;;;5.70;4.13;;;;;;;;;;5055361;28;20174;-71
2023/05/13 12:03:42;;;;;;;5.60;4.63;;;;;;;;;;5041885;28;20190;-70
2023/05/13 12:06:09;;;;;;;6.77;4.90;;;;;;;;;;5058417;28;20259;-70
2023/05/13 12:08:35;;;;;;;8.50;4.90;;;;;;;;;;5036970;28;20182;-71
2023/05/13 12:11:01;;;;;;;9.93;4.33;;;;;;;;;;5055026;28;20190;-71
2023/05/13 12:13:27;;;;;;;6.50;3.87;;;;;;;;;;5054717;28;20203;-71
2023/05/13 12:15:54;;;;;;;5.30;3.50;;;;;;;;;;5054623;28;20225;-72
2023/05/13 12:18:20;;;;;;;6.33;3.90;;;;;;;;;;5054400;28;20170;-71
2023/05/13 12:20:46;;;;;;;4.80;3.90;;;;;;;;;;5037961;28;20182;-72
2023/05/13 12:23:12;;;;;;;4.17;3.70;;;;;;;;;;5054579;28;20228;-71
2023/05/13 12:25:38;;;;;;;7.50;4.27;;;;;;;;;;5036355;28;20206;-70
2023/05/13 12:28:09;;;;;;;4.87;4.47;;;;;;;;;;5036509;28;20600;-70
2023/05/13 12:30:39;;;;;;;4.93;4.07;;;;;;;;;;5036458;28;20183;-71
2023/05/13 12:33:05;;;;;;;5.27;4.17;;;;;;;;;;5036401;28;20190;-71
2023/05/13 12:35:31;;;;;;;6.70;3.80;;;;;;;;;;5035885;28;20694;-71
2023/05/13 12:38:00;;;;;;;4.37;3.93;;;;;;;;;;5053715;28;20613;-71
2023/05/13 12:40:26;;;;;;;4.73;3.57;;;;;;;;;;5053809;28;20667;-71
2023/05/13 12:42:55;;;;;;;4.57;3.93;;;;;;;;;;5053819;28;20210;-71
2023/05/13 12:45:21;;;;;;;5.80;4.20;;;;;;;;;;5035990;28;20195;-71
2023/05/13 12:47:50;;;;;;;4.97;4.47;;;;;;;;;;5053953;28;20694;-70
2023/05/13 12:50:16;;;;;;;6.10;3.80;;;;;;;;;;5053818;28;20648;-70
2023/05/13 12:52:42;;;;;;;4.93;4.03;;;;;;;;;;5053703;28;20559;-70
2023/05/13 12:55:09;;;;;;;5.67;3.53;;;;;;;;;;5035725;28;20199;-69
2023/05/13 12:57:35;;;;;;;4.77;3.87;;;;;;;;;;5035868;28;20232;-70
2023/05/13 13:00:01;;;;;;;7.53;4.37;;;;;;;;;;5035551;28;20186;-70
2023/05/13 13:02:27;;;;;;;7.03;4.10;;;;;;;;;;5035504;28;20206;-70
2023/05/13 13:04:53;;;;;;;7.30;4.60;;;;;;;;;;5035526;28;20263;-69
2023/05/13 13:07:19;;;;;;;8.67;4.37;;;;;;;;;;5035560;28;20189;-70
2023/05/13 13:09:45;;;;;;;11.50;5.40;;;;;;;;;;5035456;28;20633;-71
2023/05/13 13:12:11;;;;;;;9.47;5.03;;;;;;;;;;5035561;28;20189;-71
2023/05/13 13:14:37;;;;;;;7.47;4.43;;;;;;;;;;5035286;28;20737;-70
2023/05/13 13:17:02;;;;;;;6.77;4.53;;;;;;;;;;5036458;28;20210;-70
2023/05/13 13:19:28;;;;;;;6.27;4.73;;;;;;;;;;5036261;28;20672;-71
2023/05/13 13:21:54;;;;;;;7.83;5.10;;;;;;;;;;5035339;28;20210;-70
2023/05/13 13:24:20;;;;;;;5.37;4.03;;;;;;;;;;5035399;28;20210;-70
2023/05/13 13:26:48;;;;;;;9.37;4.43;;;;;;;;;;5035379;28;20659;-70
2023/05/13 13:29:14;;;;;;;8.10;4.17;;;;;;;;;;5035443;28;20704;-70
2023/05/13 13:31:40;;;;;;;5.73;4.23;;;;;;;;;;5035417;28;20269;-69
2023/05/13 13:34:08;;;;;;;4.30;3.90;;;;;;;;;;5035521;28;20188;-70
2023/05/13 13:36:34;;;;;;;4.70;4.20;;;;;;;;;;5053906;28;20185;-71
2023/05/13 13:39:00;;;;;;;9.97;4.10;;;;;;;;;;5053323;28;20178;-71
2023/05/13 13:41:26;;;;;;;;;;;;;;;;;;5035889;28;20029;-72
2023/05/13 13:43:52;;;;;;;;;;;;;;;;;;5035882;28;19904;-71
2023/05/13 13:46:18;;;;;;;;;;;;;;;;;;5035730;28;20377;-70
2023/05/13 13:48:44;;;;;;;;;;;;;;;;;;5053506;28;19962;-72
2023/05/13 13:51:10;;;;;;;4.70;3.87;;;;;;;;;;5053409;28;20181;-70
2023/05/13 13:53:35;;;;;;;4.93;4.00;;;;;;;;;;5035895;28;20621;-70
2023/05/13 13:56:01;;;;;;;7.67;3.90;;;;;;;;;;5054249;28;20227;-70
2023/05/13 13:58:27;;;;;;;4.83;3.80;;;;;;;;;;5035796;28;20182;-70
2023/05/13 14:00:53;;;;;;;4.77;3.30;;;;;;;;;;5053888;28;20278;-70
2023/05/13 14:03:19;;;;;;;4.40;3.40;;;;;;;;;;5035371;28;20634;-70
2023/05/13 14:05:45;;;;;;;4.63;4.07;;;;;;;;;;5035209;28;20238;-71
2023/05/13 14:08:11;;;;;;;6.50;3.83;;;;;;;;;;5035041;28;20196;-70
2023/05/13 14:10:37;;;;;;;6.17;4.17;;;;;;;;;;5035358;28;20715;-72
2023/05/13 14:13:03;;;;;;;5.10;4.60;;;;;;;;;;5053676;28;20236;-70
2023/05/13 14:15:30;;;;;;;8.83;3.93;;;;;;;;;;5055254;28;20198;-70
2023/05/13 14:17:56;;;;;;;4.50;4.10;;;;;;;;;;5036148;28;20186;-71
2023/05/13 14:20:23;;;;;;;8.37;4.60;;;;;;;;;;5035880;28;20189;-71
2023/05/13 14:22:49;;;;;;;5.63;4.00;;;;;;;;;;5058353;28;20202;-70
2023/05/13 14:25:15;;;;;;;6.83;3.80;;;;;;;;;;5038468;28;20218;-70
2023/05/13 14:27:41;;;;;;;4.47;4.07;;;;;;;;;;5056527;28;20557;-70